createdAt,value
2023-11-30T00:00:16.270Z,8.43
2023-11-30T00:03:02.637Z,7.45
2023-11-30T00:05:49.185Z,7.68
2023-11-30T00:08:35.739Z,7.72
2023-11-30T00:11:22.219Z,9.30
2023-11-30T00:14:09.915Z,14.88
2023-11-30T00:16:56.698Z,8.20
2023-11-30T00:19:43.144Z,7.57
2023-11-30T00:22:29.442Z,7.13
2023-11-30T00:25:16.060Z,6.93
2023-11-30T00:28:02.366Z,8.30
2023-11-30T00:30:50.182Z,7.43
2023-11-30T00:33:36.533Z,8.50
2023-11-30T00:36:22.898Z,8.05
2023-11-30T00:39:09.310Z,9.25
2023-11-30T00:41:56.717Z,8.20
2023-11-30T00:44:43.301Z,8.25
2023-11-30T00:47:30.901Z,9.35
2023-11-30T00:50:17.298Z,7.95
2023-11-30T00:53:04.126Z,8.23
2023-11-30T00:55:50.264Z,8.25
2023-11-30T00:58:36.491Z,9.68
2023-11-30T01:01:23.004Z,8.18
2023-11-30T01:04:10.891Z,8.48
2023-11-30T01:06:57.622Z,8.75
2023-11-30T01:09:43.772Z,9.00
2023-11-30T01:12:30.189Z,8.82
2023-11-30T01:15:16.912Z,9.38
2023-11-30T01:18:05.004Z,9.05
2023-11-30T01:20:52.991Z,9.23
2023-11-30T01:23:39.243Z,8.73
2023-11-30T01:26:25.385Z,7.85
2023-11-30T01:29:11.686Z,8.98
2023-11-30T01:31:58.251Z,9.52
2023-11-30T01:34:45.345Z,9.77
2023-11-30T01:37:33.145Z,8.80
2023-11-30T01:40:19.350Z,8.98
2023-11-30T01:43:07.857Z,9.32
2023-11-30T01:46:02.662Z,8.85
2023-11-30T01:48:50.913Z,9.45
2023-11-30T01:51:38.589Z,10.43
2023-11-30T01:54:27.186Z,9.98
2023-11-30T01:57:14.220Z,9.15
2023-11-30T02:00:00.706Z,9.20
2023-11-30T02:02:47.405Z,8.85
2023-11-30T02:05:33.760Z,8.75
2023-11-30T02:08:20.313Z,8.90
2023-11-30T02:11:08.319Z,9.50
2023-11-30T02:13:56.429Z,10.38
2023-11-30T02:16:42.935Z,11.10
2023-11-30T02:19:29.412Z,11.98
2023-11-30T02:22:16.888Z,13.18
2023-11-30T02:25:03.372Z,11.13
2023-11-30T02:27:49.940Z,12.57
2023-11-30T02:30:38.190Z,13.63
2023-11-30T02:33:24.627Z,13.48
2023-11-30T02:36:11.684Z,13.38
2023-11-30T02:38:59.726Z,13.18
2023-11-30T02:41:46.345Z,12.93
2023-11-30T02:44:32.501Z,14.05
2023-11-30T02:47:18.843Z,15.00
2023-11-30T02:50:06.275Z,14.18
2023-11-30T02:52:52.611Z,12.95
2023-11-30T02:55:40.451Z,14.50
2023-11-30T02:58:26.925Z,14.43
2023-11-30T03:01:13.426Z,15.20
2023-11-30T03:03:59.644Z,15.68
2023-11-30T03:06:50.603Z,13.68
2023-11-30T03:12:24.279Z,13.18
2023-11-30T03:15:11.406Z,14.13
2023-11-30T03:17:57.768Z,12.82
2023-11-30T03:20:44.056Z,13.27
2023-11-30T03:23:30.465Z,12.75
2023-11-30T03:26:18.394Z,12.77
2023-11-30T03:29:06.056Z,12.93
2023-11-30T03:31:52.565Z,13.57
2023-11-30T03:34:39.199Z,15.68
2023-11-30T03:37:25.688Z,12.73
2023-11-30T03:40:12.991Z,13.45
2023-11-30T03:42:59.110Z,13.32
2023-11-30T03:45:46.974Z,11.80
2023-11-30T03:48:33.313Z,12.20
2023-11-30T03:51:19.769Z,13.18
2023-11-30T03:54:06.649Z,12.48
2023-11-30T03:56:53.368Z,12.85
2023-11-30T03:59:41.044Z,12.07
2023-11-30T04:02:28.692Z,13.55
2023-11-30T04:05:15.553Z,14.32
2023-11-30T04:08:02.485Z,13.00
2023-11-30T04:10:49.247Z,12.18
2023-11-30T04:13:35.298Z,13.48
2023-11-30T04:16:21.598Z,14.02
2023-11-30T04:19:09.494Z,12.25
2023-11-30T04:21:55.977Z,13.43
2023-11-30T04:24:42.495Z,13.18
2023-11-30T04:27:28.948Z,12.73
2023-11-30T04:30:16.722Z,13.43
2023-11-30T04:33:03.251Z,12.60
2023-11-30T04:35:51.026Z,13.30
2023-11-30T04:38:37.406Z,12.85
2023-11-30T04:41:23.376Z,13.57
2023-11-30T04:44:10.127Z,13.32
2023-11-30T04:46:56.504Z,13.88
2023-11-30T04:49:43.057Z,12.75
2023-11-30T04:52:30.650Z,14.70
2023-11-30T04:55:17.342Z,15.07
2023-11-30T04:58:03.746Z,15.30
2023-11-30T05:00:50.371Z,15.48
2023-11-30T05:03:36.945Z,15.50
2023-11-30T05:06:23.572Z,15.00
2023-11-30T05:09:11.721Z,16.15
2023-11-30T05:11:58.370Z,16.15
2023-11-30T05:14:44.763Z,16.13
2023-11-30T05:17:31.351Z,15.07
2023-11-30T05:20:17.903Z,15.07
2023-11-30T05:23:04.458Z,16.48
2023-11-30T05:25:55.337Z,16.03
2023-11-30T05:28:41.701Z,14.20
2023-11-30T05:31:27.926Z,14.40
2023-11-30T05:34:14.448Z,15.25
2023-11-30T05:37:00.979Z,14.85
2023-11-30T05:39:47.415Z,15.18
2023-11-30T05:42:35.463Z,14.20
2023-11-30T05:45:22.034Z,13.30
2023-11-30T05:48:11.697Z,14.63
2023-11-30T05:50:58.360Z,14.30
2023-11-30T05:53:44.981Z,14.40
2023-11-30T05:56:31.402Z,13.82
2023-11-30T05:59:18.926Z,14.15
2023-11-30T06:02:06.215Z,14.27
2023-11-30T06:04:53.327Z,13.57
2023-11-30T06:07:39.853Z,14.35
2023-11-30T06:10:26.333Z,14.35
2023-11-30T06:13:14.126Z,14.07
2023-11-30T06:16:01.955Z,14.32
2023-11-30T06:18:48.351Z,13.35
2023-11-30T06:21:34.742Z,14.55
2023-11-30T06:24:21.196Z,13.23
2023-11-30T06:27:08.387Z,13.18
2023-11-30T06:29:54.987Z,14.02
2023-11-30T06:32:42.765Z,14.55
2023-11-30T06:35:29.204Z,14.38
2023-11-30T06:38:15.660Z,13.25
2023-11-30T06:41:02.300Z,12.88
2023-11-30T06:43:48.584Z,13.20
2023-11-30T06:46:35.514Z,13.18
2023-11-30T06:49:23.485Z,13.30
2023-11-30T06:52:10.058Z,13.82
2023-11-30T06:54:56.440Z,13.73
2023-11-30T06:57:43.063Z,14.10
2023-11-30T07:00:29.160Z,12.88
2023-11-30T07:03:15.735Z,13.80
2023-11-30T07:06:03.837Z,13.48
2023-11-30T07:08:50.427Z,12.90
2023-11-30T07:11:36.876Z,13.85
2023-11-30T07:14:24.120Z,14.32
2023-11-30T07:17:10.464Z,12.50
2023-11-30T07:19:57.032Z,12.38
2023-11-30T07:22:45.215Z,13.48
2023-11-30T07:25:31.407Z,14.05
2023-11-30T07:28:17.982Z,12.57
2023-11-30T07:31:04.740Z,14.05
2023-11-30T07:33:51.303Z,13.90
2023-11-30T07:36:38.096Z,13.43
2023-11-30T07:39:25.846Z,13.98
2023-11-30T07:42:13.366Z,13.55
2023-11-30T07:45:02.962Z,13.95
2023-11-30T07:47:50.226Z,13.55
2023-11-30T07:50:36.690Z,13.52
2023-11-30T07:53:24.384Z,13.55
2023-11-30T07:56:12.470Z,13.65
2023-11-30T07:58:58.866Z,13.95
2023-11-30T08:01:45.515Z,13.52
2023-11-30T08:04:32.192Z,13.75
2023-11-30T08:07:18.436Z,14.75
2023-11-30T08:10:07.453Z,14.85
2023-11-30T08:12:54.976Z,14.68
2023-11-30T08:15:41.317Z,14.70
2023-11-30T08:18:27.610Z,14.57
2023-11-30T08:21:17.130Z,14.40
2023-11-30T08:24:03.700Z,14.73
2023-11-30T08:26:50.370Z,14.75
2023-11-30T08:29:38.117Z,16.08
2023-11-30T08:32:25.695Z,15.38
2023-11-30T08:35:12.583Z,16.67
2023-11-30T08:37:59.020Z,16.08
2023-11-30T08:40:45.330Z,16.30
2023-11-30T08:43:31.979Z,16.85
2023-11-30T08:46:19.793Z,16.75
2023-11-30T08:49:06.094Z,18.25
2023-11-30T08:51:53.404Z,19.15
2023-11-30T08:54:40.110Z,18.20
2023-11-30T08:57:29.941Z,17.80
2023-11-30T09:00:20.372Z,17.15
2023-11-30T09:03:09.091Z,18.80
2023-11-30T09:05:56.023Z,17.20
2023-11-30T09:08:42.630Z,17.45
2023-11-30T09:11:31.040Z,17.80
2023-11-30T09:14:17.274Z,18.42
2023-11-30T09:17:05.373Z,17.80
2023-11-30T09:19:53.093Z,18.05
2023-11-30T09:22:40.693Z,19.75
2023-11-30T09:25:27.604Z,17.50
2023-11-30T09:28:13.916Z,17.98
2023-11-30T09:31:03.244Z,19.75
2023-11-30T09:33:49.765Z,17.55
2023-11-30T09:36:38.502Z,19.20
2023-11-30T09:39:25.012Z,20.52
2023-11-30T09:42:17.079Z,20.10
2023-11-30T09:45:05.400Z,20.52
2023-11-30T09:47:52.032Z,20.63
2023-11-30T09:50:38.851Z,20.65
2023-11-30T09:53:27.124Z,22.70
2023-11-30T09:56:13.697Z,23.20
2023-11-30T09:59:00.211Z,24.88
2023-11-30T10:01:46.584Z,24.67
2023-11-30T10:04:33.179Z,24.98
2023-11-30T10:07:19.980Z,25.25
2023-11-30T10:10:10.121Z,23.52
2023-11-30T10:12:56.620Z,24.08
2023-11-30T10:15:43.110Z,25.75
2023-11-30T10:18:31.371Z,24.95
2023-11-30T10:21:17.812Z,26.00
2023-11-30T10:24:04.490Z,26.13
2023-11-30T10:26:53.602Z,25.23
2023-11-30T10:29:44.720Z,24.40
2023-11-30T10:32:33.932Z,27.25
2023-11-30T10:35:23.140Z,25.52
2023-11-30T10:38:11.790Z,26.33
2023-11-30T10:41:02.656Z,24.52
2023-11-30T10:43:54.484Z,25.52
2023-11-30T10:46:43.877Z,25.27
2023-11-30T10:49:31.083Z,25.30
2023-11-30T10:52:19.591Z,25.20
2023-11-30T10:55:10.230Z,24.67
2023-11-30T10:57:58.533Z,24.80
2023-11-30T11:00:46.871Z,22.58
2023-11-30T11:03:33.865Z,23.23
2023-11-30T11:06:26.307Z,22.95
2023-11-30T11:09:16.777Z,22.38
2023-11-30T11:12:03.697Z,23.13
2023-11-30T11:14:50.940Z,21.58
2023-11-30T11:17:49.128Z,22.23
2023-11-30T11:20:38.140Z,21.63
2023-11-30T11:23:24.684Z,22.75
2023-11-30T11:26:11.358Z,22.27
2023-11-30T11:28:58.131Z,21.30
2023-11-30T11:31:44.576Z,20.85
2023-11-30T11:34:33.150Z,22.80
2023-11-30T11:37:20.437Z,23.10
2023-11-30T11:40:07.735Z,23.35
2023-11-30T11:42:54.432Z,22.05
2023-11-30T11:45:44.038Z,23.25
2023-11-30T11:48:30.377Z,22.98
2023-11-30T11:51:18.180Z,20.95
2023-11-30T11:54:05.031Z,20.35
2023-11-30T11:56:52.616Z,20.77
2023-11-30T11:59:39.184Z,20.25
2023-11-30T12:02:25.839Z,19.45
2023-11-30T12:05:13.631Z,19.73
2023-11-30T12:08:02.423Z,18.27
2023-11-30T12:10:51.654Z,20.45
2023-11-30T12:13:38.990Z,17.77
2023-11-30T12:16:25.581Z,18.23
2023-11-30T12:19:12.164Z,18.42
2023-11-30T12:21:58.423Z,18.20
2023-11-30T12:24:46.378Z,19.85
2023-11-30T12:27:32.592Z,19.13
2023-11-30T12:30:19.841Z,18.90
2023-11-30T12:33:06.356Z,19.35
2023-11-30T12:35:53.589Z,21.00
2023-11-30T12:38:39.948Z,20.63
2023-11-30T12:41:27.764Z,20.23
2023-11-30T12:44:14.710Z,17.60
2023-11-30T12:47:00.773Z,18.05
2023-11-30T12:49:48.840Z,17.83
2023-11-30T12:52:35.502Z,16.55
2023-11-30T12:55:22.045Z,17.20
2023-11-30T12:58:11.300Z,16.70
2023-11-30T13:00:57.659Z,17.20
2023-11-30T13:03:47.241Z,18.23
2023-11-30T13:06:33.811Z,17.73
2023-11-30T13:09:21.079Z,17.30
2023-11-30T13:12:07.941Z,16.75
2023-11-30T13:14:57.320Z,18.00
2023-11-30T13:17:46.805Z,18.23
2023-11-30T13:20:36.364Z,18.08
2023-11-30T13:23:22.668Z,17.85
2023-11-30T13:26:09.278Z,18.80
2023-11-30T13:28:55.577Z,19.02
2023-11-30T13:31:44.179Z,19.20
2023-11-30T13:34:31.327Z,18.67
2023-11-30T13:37:17.632Z,19.80
2023-11-30T13:40:06.702Z,19.27
2023-11-30T13:42:53.375Z,17.80
2023-11-30T13:45:39.742Z,20.20
2023-11-30T13:48:28.226Z,19.63
2023-11-30T13:51:15.669Z,18.50
2023-11-30T13:54:02.263Z,18.17
2023-11-30T13:56:48.743Z,19.95
2023-11-30T13:59:35.964Z,18.02
2023-11-30T14:02:22.313Z,20.00
2023-11-30T14:05:10.681Z,18.70
2023-11-30T14:07:56.956Z,18.70
2023-11-30T14:10:43.503Z,19.35
2023-11-30T14:13:29.940Z,19.42
2023-11-30T14:16:16.800Z,20.15
2023-11-30T14:19:03.597Z,19.00
2023-11-30T14:21:51.310Z,19.45
2023-11-30T14:24:37.759Z,19.48
2023-11-30T14:27:24.382Z,18.52
2023-11-30T14:30:11.425Z,18.20
2023-11-30T14:32:57.726Z,19.83
2023-11-30T14:35:44.333Z,18.63
2023-11-30T14:38:34.275Z,20.67
2023-11-30T14:41:20.372Z,18.48
2023-11-30T14:44:06.945Z,17.92
2023-11-30T14:46:53.681Z,18.65
2023-11-30T14:49:40.119Z,19.05
2023-11-30T14:52:26.635Z,19.48
2023-11-30T14:55:14.809Z,19.10
2023-11-30T14:58:01.569Z,19.30
2023-11-30T15:00:48.573Z,17.92
2023-11-30T15:03:35.495Z,17.48
2023-11-30T15:06:21.861Z,19.15
2023-11-30T15:09:09.284Z,19.33
2023-11-30T15:11:57.038Z,17.95
2023-11-30T15:14:43.411Z,18.02
2023-11-30T15:17:29.807Z,17.65
2023-11-30T15:20:17.838Z,17.10
2023-11-30T15:23:08.413Z,17.55
2023-11-30T15:25:55.673Z,17.75
2023-11-30T15:28:43.619Z,17.10
2023-11-30T15:31:29.950Z,16.55
2023-11-30T15:34:16.547Z,16.73
2023-11-30T15:37:05.280Z,17.02
2023-11-30T15:39:54.129Z,16.55
2023-11-30T15:42:40.477Z,16.60
2023-11-30T15:45:28.414Z,17.33
2023-11-30T15:48:15.034Z,16.35
2023-11-30T15:51:03.142Z,16.83
2023-11-30T15:53:49.406Z,16.30
2023-11-30T15:56:36.169Z,16.35
2023-11-30T15:59:22.335Z,15.98
2023-11-30T16:02:10.194Z,15.55
2023-11-30T16:04:56.402Z,15.68
2023-11-30T16:07:43.172Z,15.23
2023-11-30T16:10:29.374Z,16.17
2023-11-30T16:13:15.703Z,16.45
2023-11-30T16:16:06.209Z,15.40
2023-11-30T16:18:54.069Z,16.05
2023-11-30T16:21:40.525Z,15.98
2023-11-30T16:24:27.071Z,16.92
2023-11-30T16:27:13.214Z,16.70
2023-11-30T16:29:59.593Z,15.75
2023-11-30T16:32:46.320Z,16.02
2023-11-30T16:35:33.863Z,14.52
2023-11-30T16:38:21.484Z,14.32
2023-11-30T16:41:08.446Z,15.82
2023-11-30T16:43:54.841Z,16.35
2023-11-30T16:46:41.287Z,18.30
2023-11-30T16:49:27.702Z,16.33
2023-11-30T16:52:15.460Z,17.35
2023-11-30T16:55:02.739Z,17.35
2023-11-30T16:57:50.115Z,17.75
2023-11-30T17:00:36.541Z,19.67
2023-11-30T17:03:22.999Z,17.33
2023-11-30T17:06:12.869Z,17.97
2023-11-30T17:09:00.924Z,18.90
2023-11-30T17:11:47.240Z,17.17
2023-11-30T17:14:34.022Z,18.30
2023-11-30T17:17:20.229Z,24.63
2023-11-30T17:20:08.744Z,22.38
2023-11-30T17:22:55.157Z,19.88
2023-11-30T17:25:44.682Z,19.95
2023-11-30T17:28:31.168Z,16.97
2023-11-30T17:31:17.640Z,18.20
2023-11-30T17:34:07.486Z,17.50
2023-11-30T17:36:53.803Z,17.17
2023-11-30T17:39:41.175Z,19.20
2023-11-30T17:42:29.826Z,18.88
2023-11-30T17:45:16.469Z,18.35
2023-11-30T17:48:05.518Z,18.38
2023-11-30T17:50:52.200Z,18.52
2023-11-30T17:53:38.468Z,20.95
2023-11-30T17:56:24.584Z,19.95
2023-11-30T17:59:13.142Z,18.65
2023-11-30T18:01:59.482Z,19.50
2023-11-30T18:04:45.542Z,20.45
2023-11-30T18:07:32.398Z,18.90
2023-11-30T18:10:18.637Z,21.98
2023-11-30T18:13:04.874Z,20.50
2023-11-30T18:15:56.143Z,18.67
2023-11-30T18:18:42.757Z,22.10
2023-11-30T18:21:30.192Z,20.05
2023-11-30T18:24:16.796Z,15.82
2023-11-30T18:27:04.506Z,20.20
2023-11-30T18:29:51.217Z,19.42
2023-11-30T18:32:42.809Z,17.63
2023-11-30T18:35:29.294Z,19.92
2023-11-30T18:38:15.884Z,25.58
2023-11-30T18:41:02.540Z,22.65
2023-11-30T18:43:49.300Z,23.17
2023-11-30T18:46:35.868Z,29.88
2023-11-30T18:49:24.085Z,25.48
2023-11-30T18:52:10.992Z,22.30
2023-11-30T18:54:57.679Z,27.15
2023-11-30T18:57:44.195Z,24.63
2023-11-30T19:00:30.608Z,25.38
2023-11-30T19:03:16.828Z,24.65
2023-11-30T19:06:04.993Z,23.05
2023-11-30T19:08:51.782Z,25.52
2023-11-30T19:11:38.198Z,26.23
2023-11-30T19:14:25.035Z,24.10
2023-11-30T19:17:11.296Z,20.35
2023-11-30T19:19:57.748Z,20.30
2023-11-30T19:22:47.030Z,17.13
2023-11-30T19:25:33.880Z,21.23
2023-11-30T19:28:20.205Z,20.90
2023-11-30T19:31:07.638Z,25.10
2023-11-30T19:33:54.532Z,21.88
2023-11-30T19:36:41.012Z,19.55
2023-11-30T19:39:28.687Z,18.05
2023-11-30T19:42:15.235Z,19.42
2023-11-30T19:45:01.615Z,21.30
2023-11-30T19:47:48.152Z,24.58
2023-11-30T19:50:35.497Z,21.45
2023-11-30T19:53:22.559Z,19.73
2023-11-30T19:56:14.265Z,20.08
2023-11-30T19:59:00.844Z,19.35
2023-11-30T20:01:47.247Z,18.95
2023-11-30T20:04:33.915Z,20.27
2023-11-30T20:07:20.277Z,20.75
2023-11-30T20:10:08.164Z,18.25
2023-11-30T20:12:56.503Z,15.80
2023-11-30T20:15:42.721Z,22.05
2023-11-30T20:18:29.132Z,17.67
2023-11-30T20:21:19.489Z,19.63
2023-11-30T20:24:06.183Z,23.17
2023-11-30T20:26:54.952Z,19.23
2023-11-30T20:29:42.875Z,21.73
2023-11-30T20:32:29.349Z,26.50
2023-11-30T20:35:15.583Z,25.92
2023-11-30T20:38:02.110Z,25.52
2023-11-30T20:40:48.631Z,20.20
2023-11-30T20:43:35.208Z,26.35
2023-11-30T20:46:23.036Z,24.50
2023-11-30T20:49:09.273Z,24.15
2023-11-30T20:51:55.634Z,26.55
2023-11-30T20:54:41.926Z,23.77
2023-11-30T20:57:28.416Z,25.48
2023-11-30T21:00:15.658Z,25.85
2023-11-30T21:03:03.669Z,23.17
2023-11-30T21:05:50.321Z,27.20
2023-11-30T21:08:36.891Z,25.00
2023-11-30T21:11:23.558Z,22.52
2023-11-30T21:14:11.510Z,19.00
2023-11-30T21:16:58.193Z,22.23
2023-11-30T21:19:46.184Z,22.80
2023-11-30T21:22:32.868Z,21.23
2023-11-30T21:25:20.882Z,21.83
2023-11-30T21:28:08.849Z,21.75
2023-11-30T21:30:55.408Z,21.45
2023-11-30T21:33:41.845Z,24.08
2023-11-30T21:36:29.752Z,23.20
2023-11-30T21:39:16.135Z,26.15
2023-11-30T21:42:02.505Z,21.95
2023-11-30T21:44:48.974Z,21.92
2023-11-30T21:47:36.801Z,21.10
2023-11-30T21:50:26.341Z,23.13
2023-11-30T21:53:14.952Z,22.65
2023-11-30T21:56:01.419Z,22.52
2023-11-30T21:58:47.712Z,20.00
2023-11-30T22:01:34.092Z,22.25
2023-11-30T22:04:21.052Z,22.63
2023-11-30T22:07:07.328Z,21.52
2023-11-30T22:09:55.164Z,21.38
2023-11-30T22:12:41.460Z,20.80
2023-11-30T22:15:27.966Z,20.48
2023-11-30T22:18:14.516Z,21.65
2023-11-30T22:21:00.866Z,25.15
2023-11-30T22:23:49.010Z,20.23
2023-11-30T22:26:36.829Z,21.30
2023-11-30T22:29:23.154Z,20.67
2023-11-30T22:32:09.701Z,22.25
2023-11-30T22:34:56.168Z,22.35
2023-11-30T22:37:42.610Z,23.35
2023-11-30T22:40:28.715Z,22.13
2023-11-30T22:43:16.291Z,23.13
2023-11-30T22:46:02.782Z,24.40
2023-11-30T22:48:51.038Z,24.92
2023-11-30T22:51:41.753Z,21.90
2023-11-30T22:54:28.929Z,21.23
2023-11-30T22:57:15.497Z,18.50
2023-11-30T23:00:03.512Z,21.15
2023-11-30T23:02:50.358Z,19.52
2023-11-30T23:05:38.571Z,22.88
2023-11-30T23:08:26.893Z,20.60
2023-11-30T23:11:13.469Z,20.80
2023-11-30T23:13:59.788Z,20.23
2023-11-30T23:16:47.597Z,20.25
2023-11-30T23:19:33.904Z,19.50
2023-11-30T23:22:20.284Z,21.67
2023-11-30T23:25:08.202Z,19.83
2023-11-30T23:27:54.679Z,21.48
2023-11-30T23:30:44.019Z,18.23
2023-11-30T23:33:32.341Z,21.23
2023-11-30T23:36:18.772Z,22.73
2023-11-30T23:39:05.536Z,19.65
2023-11-30T23:41:51.658Z,19.95
2023-11-30T23:44:38.908Z,19.23
2023-11-30T23:47:25.224Z,20.85
2023-11-30T23:50:13.646Z,20.30
2023-11-30T23:53:00.220Z,19.95
2023-11-30T23:55:46.405Z,18.35
2023-11-30T23:58:33.144Z,19.10
